sensor_id;sensor_type;location;lat;lon;timestamp;P1;durP1;ratioP1;P2;durP2;ratioP2
24216;SDS011;12356;49.386;8.688;2023-08-06T00:00:09;2.85;;;2.55;;
24216;SDS011;12356;49.386;8.688;2023-08-06T00:02:40;3.42;;;2.55;;
24216;SDS011;12356;49.386;8.688;2023-08-06T00:05:11;3.67;;;2.67;;
24216;SDS011;12356;49.386;8.688;2023-08-06T00:07:41;3.28;;;2.70;;
24216;SDS011;12356;49.386;8.688;2023-08-06T00:10:12;4.97;;;2.70;;
24216;SDS011;12356;49.386;8.688;2023-08-06T00:12:43;3.55;;;2.47;;
24216;SDS011;12356;49.386;8.688;2023-08-06T00:15:14;4.13;;;2.80;;
24216;SDS011;12356;49.386;8.688;2023-08-06T00:17:44;3.42;;;2.50;;
24216;SDS011;12356;49.386;8.688;2023-08-06T00:20:15;2.80;;;2.45;;
24216;SDS011;12356;49.386;8.688;2023-08-06T00:22:45;3.55;;;2.30;;
24216;SDS011;12356;49.386;8.688;2023-08-06T00:25:16;3.03;;;2.25;;
24216;SDS011;12356;49.386;8.688;2023-08-06T00:27:46;3.38;;;2.63;;
24216;SDS011;12356;49.386;8.688;2023-08-06T00:30:17;3.97;;;2.30;;
24216;SDS011;12356;49.386;8.688;2023-08-06T00:32:48;2.53;;;2.08;;
24216;SDS011;12356;49.386;8.688;2023-08-06T00:35:19;3.00;;;2.67;;
24216;SDS011;12356;49.386;8.688;2023-08-06T00:37:49;5.97;;;2.30;;
24216;SDS011;12356;49.386;8.688;2023-08-06T00:40:20;4.78;;;2.33;;
24216;SDS011;12356;49.386;8.688;2023-08-06T00:42:52;5.82;;;2.50;;
24216;SDS011;12356;49.386;8.688;2023-08-06T00:45:22;5.40;;;2.60;;
24216;SDS011;12356;49.386;8.688;2023-08-06T00:47:53;3.50;;;2.20;;
24216;SDS011;12356;49.386;8.688;2023-08-06T00:50:23;2.95;;;2.38;;
24216;SDS011;12356;49.386;8.688;2023-08-06T00:52:54;4.50;;;2.15;;
24216;SDS011;12356;49.386;8.688;2023-08-06T00:55:25;4.25;;;2.10;;
24216;SDS011;12356;49.386;8.688;2023-08-06T00:57:55;4.15;;;2.30;;
24216;SDS011;12356;49.386;8.688;2023-08-06T01:00:26;4.20;;;2.28;;
24216;SDS011;12356;49.386;8.688;2023-08-06T01:02:57;4.57;;;2.40;;
24216;SDS011;12356;49.386;8.688;2023-08-06T01:05:28;3.55;;;2.30;;
24216;SDS011;12356;49.386;8.688;2023-08-06T01:08:05;4.95;;;2.53;;
24216;SDS011;12356;49.386;8.688;2023-08-06T01:11:05;3.00;;;2.42;;
24216;SDS011;12356;49.386;8.688;2023-08-06T01:13:42;3.50;;;2.35;;
24216;SDS011;12356;49.386;8.688;2023-08-06T01:16:17;5.10;;;2.40;;
24216;SDS011;12356;49.386;8.688;2023-08-06T01:18:49;3.33;;;2.25;;
24216;SDS011;12356;49.386;8.688;2023-08-06T01:21:19;3.22;;;2.30;;
24216;SDS011;12356;49.386;8.688;2023-08-06T01:23:50;5.57;;;2.20;;
24216;SDS011;12356;49.386;8.688;2023-08-06T01:26:26;2.25;;;2.05;;
24216;SDS011;12356;49.386;8.688;2023-08-06T01:29:06;3.38;;;2.20;;
24216;SDS011;12356;49.386;8.688;2023-08-06T01:31:58;3.78;;;2.15;;
24216;SDS011;12356;49.386;8.688;2023-08-06T01:34:31;4.53;;;2.10;;
24216;SDS011;12356;49.386;8.688;2023-08-06T01:37:04;4.60;;;2.30;;
24216;SDS011;12356;49.386;8.688;2023-08-06T01:39:35;4.70;;;2.40;;
24216;SDS011;12356;49.386;8.688;2023-08-06T01:42:06;2.42;;;2.00;;
24216;SDS011;12356;49.386;8.688;2023-08-06T01:44:37;2.97;;;2.00;;
24216;SDS011;12356;49.386;8.688;2023-08-06T01:47:08;4.18;;;2.10;;
24216;SDS011;12356;49.386;8.688;2023-08-06T01:49:38;2.42;;;2.13;;
24216;SDS011;12356;49.386;8.688;2023-08-06T01:52:09;3.78;;;2.60;;
24216;SDS011;12356;49.386;8.688;2023-08-06T01:54:39;5.43;;;2.33;;
24216;SDS011;12356;49.386;8.688;2023-08-06T01:57:10;2.60;;;2.30;;
24216;SDS011;12356;49.386;8.688;2023-08-06T01:59:40;3.58;;;2.25;;
24216;SDS011;12356;49.386;8.688;2023-08-06T02:02:11;4.68;;;1.95;;
24216;SDS011;12356;49.386;8.688;2023-08-06T02:04:42;2.67;;;2.00;;
24216;SDS011;12356;49.386;8.688;2023-08-06T02:07:13;2.85;;;2.10;;
24216;SDS011;12356;49.386;8.688;2023-08-06T02:09:43;5.03;;;2.20;;
24216;SDS011;12356;49.386;8.688;2023-08-06T02:12:14;3.30;;;2.10;;
24216;SDS011;12356;49.386;8.688;2023-08-06T02:14:44;2.88;;;1.90;;
24216;SDS011;12356;49.386;8.688;2023-08-06T02:17:15;3.72;;;2.10;;
24216;SDS011;12356;49.386;8.688;2023-08-06T02:19:45;4.90;;;2.10;;
24216;SDS011;12356;49.386;8.688;2023-08-06T02:22:16;4.15;;;1.95;;
24216;SDS011;12356;49.386;8.688;2023-08-06T02:24:46;5.13;;;2.10;;
24216;SDS011;12356;49.386;8.688;2023-08-06T02:27:19;3.28;;;1.90;;
24216;SDS011;12356;49.386;8.688;2023-08-06T02:29:50;3.22;;;2.05;;
24216;SDS011;12356;49.386;8.688;2023-08-06T02:32:20;2.95;;;1.90;;
24216;SDS011;12356;49.386;8.688;2023-08-06T02:34:51;4.15;;;2.15;;
24216;SDS011;12356;49.386;8.688;2023-08-06T02:37:21;2.55;;;1.80;;
24216;SDS011;12356;49.386;8.688;2023-08-06T02:39:52;3.33;;;1.88;;
24216;SDS011;12356;49.386;8.688;2023-08-06T02:42:22;3.65;;;1.92;;
24216;SDS011;12356;49.386;8.688;2023-08-06T02:44:53;4.13;;;1.95;;
24216;SDS011;12356;49.386;8.688;2023-08-06T02:47:26;3.65;;;1.98;;
24216;SDS011;12356;49.386;8.688;2023-08-06T02:49:57;3.20;;;1.92;;
24216;SDS011;12356;49.386;8.688;2023-08-06T02:52:27;2.72;;;1.75;;
24216;SDS011;12356;49.386;8.688;2023-08-06T02:54:58;3.55;;;1.77;;
24216;SDS011;12356;49.386;8.688;2023-08-06T02:57:30;3.10;;;1.92;;
24216;SDS011;12356;49.386;8.688;2023-08-06T03:00:00;2.30;;;1.98;;
24216;SDS011;12356;49.386;8.688;2023-08-06T03:02:31;3.45;;;1.92;;
24216;SDS011;12356;49.386;8.688;2023-08-06T03:05:02;3.40;;;1.65;;
24216;SDS011;12356;49.386;8.688;2023-08-06T03:07:33;4.07;;;1.95;;
24216;SDS011;12356;49.386;8.688;2023-08-06T03:12:36;3.83;;;2.15;;
24216;SDS011;12356;49.386;8.688;2023-08-06T03:15:07;3.42;;;1.80;;
24216;SDS011;12356;49.386;8.688;2023-08-06T03:17:38;3.67;;;2.03;;
24216;SDS011;12356;49.386;8.688;2023-08-06T03:20:09;3.97;;;1.67;;
24216;SDS011;12356;49.386;8.688;2023-08-06T03:22:39;2.72;;;1.70;;
24216;SDS011;12356;49.386;8.688;2023-08-06T03:25:10;3.00;;;2.00;;
24216;SDS011;12356;49.386;8.688;2023-08-06T03:27:40;3.33;;;1.80;;
24216;SDS011;12356;49.386;8.688;2023-08-06T03:30:11;4.32;;;1.90;;
24216;SDS011;12356;49.386;8.688;2023-08-06T03:32:42;3.38;;;1.80;;
24216;SDS011;12356;49.386;8.688;2023-08-06T03:35:12;3.60;;;1.98;;
24216;SDS011;12356;49.386;8.688;2023-08-06T03:37:43;3.28;;;1.90;;
24216;SDS011;12356;49.386;8.688;2023-08-06T03:40:13;2.50;;;1.75;;
24216;SDS011;12356;49.386;8.688;2023-08-06T03:42:44;2.22;;;1.70;;
24216;SDS011;12356;49.386;8.688;2023-08-06T03:45:14;2.90;;;1.85;;
24216;SDS011;12356;49.386;8.688;2023-08-06T03:47:45;3.97;;;2.00;;
24216;SDS011;12356;49.386;8.688;2023-08-06T03:50:16;2.58;;;1.60;;
24216;SDS011;12356;49.386;8.688;2023-08-06T03:52:46;8.02;;;2.20;;
24216;SDS011;12356;49.386;8.688;2023-08-06T03:55:17;5.03;;;1.83;;
24216;SDS011;12356;49.386;8.688;2023-08-06T03:57:47;3.40;;;2.00;;
24216;SDS011;12356;49.386;8.688;2023-08-06T04:00:18;3.97;;;1.60;;
24216;SDS011;12356;49.386;8.688;2023-08-06T04:02:48;4.55;;;1.52;;
24216;SDS011;12356;49.386;8.688;2023-08-06T04:05:20;4.70;;;1.85;;
24216;SDS011;12356;49.386;8.688;2023-08-06T04:07:50;3.60;;;1.50;;
24216;SDS011;12356;49.386;8.688;2023-08-06T04:10:21;3.45;;;1.50;;
24216;SDS011;12356;49.386;8.688;2023-08-06T04:12:51;4.40;;;1.58;;
24216;SDS011;12356;49.386;8.688;2023-08-06T04:15:22;3.55;;;1.50;;
24216;SDS011;12356;49.386;8.688;2023-08-06T04:17:52;2.72;;;1.60;;
24216;SDS011;12356;49.386;8.688;2023-08-06T04:20:23;4.40;;;1.63;;
24216;SDS011;12356;49.386;8.688;2023-08-06T04:22:54;4.63;;;1.30;;
24216;SDS011;12356;49.386;8.688;2023-08-06T04:25:25;2.75;;;1.60;;
24216;SDS011;12356;49.386;8.688;2023-08-06T04:27:55;4.13;;;1.35;;
24216;SDS011;12356;49.386;8.688;2023-08-06T04:30:26;6.53;;;1.30;;
24216;SDS011;12356;49.386;8.688;2023-08-06T04:32:57;4.25;;;1.20;;
24216;SDS011;12356;49.386;8.688;2023-08-06T04:35:28;6.80;;;1.30;;
24216;SDS011;12356;49.386;8.688;2023-08-06T04:37:59;2.85;;;1.00;;
24216;SDS011;12356;49.386;8.688;2023-08-06T04:40:29;4.93;;;1.33;;
24216;SDS011;12356;49.386;8.688;2023-08-06T04:43:00;2.13;;;1.00;;
24216;SDS011;12356;49.386;8.688;2023-08-06T04:45:30;3.30;;;1.10;;
24216;SDS011;12356;49.386;8.688;2023-08-06T04:48:01;3.08;;;0.95;;
24216;SDS011;12356;49.386;8.688;2023-08-06T04:50:31;2.38;;;0.98;;
24216;SDS011;12356;49.386;8.688;2023-08-06T04:53:02;3.78;;;1.10;;
24216;SDS011;12356;49.386;8.688;2023-08-06T04:55:33;4.55;;;1.20;;
24216;SDS011;12356;49.386;8.688;2023-08-06T04:58:03;3.00;;;1.08;;
24216;SDS011;12356;49.386;8.688;2023-08-06T05:00:34;3.35;;;0.93;;
24216;SDS011;12356;49.386;8.688;2023-08-06T05:03:05;5.28;;;1.00;;
24216;SDS011;12356;49.386;8.688;2023-08-06T05:05:35;2.72;;;0.95;;
24216;SDS011;12356;49.386;8.688;2023-08-06T05:08:06;2.90;;;0.98;;
24216;SDS011;12356;49.386;8.688;2023-08-06T05:10:37;2.03;;;0.90;;
24216;SDS011;12356;49.386;8.688;2023-08-06T05:13:07;3.40;;;1.08;;
24216;SDS011;12356;49.386;8.688;2023-08-06T05:15:38;3.13;;;0.93;;
24216;SDS011;12356;49.386;8.688;2023-08-06T05:18:12;3.53;;;1.05;;
24216;SDS011;12356;49.386;8.688;2023-08-06T05:20:42;5.30;;;1.00;;
24216;SDS011;12356;49.386;8.688;2023-08-06T05:23:13;3.33;;;1.00;;
24216;SDS011;12356;49.386;8.688;2023-08-06T05:25:44;4.05;;;1.05;;
24216;SDS011;12356;49.386;8.688;2023-08-06T05:28:14;5.85;;;1.10;;
24216;SDS011;12356;49.386;8.688;2023-08-06T05:30:45;2.95;;;1.17;;
24216;SDS011;12356;49.386;8.688;2023-08-06T05:33:15;3.42;;;1.10;;
24216;SDS011;12356;49.386;8.688;2023-08-06T05:35:46;5.57;;;1.15;;
24216;SDS011;12356;49.386;8.688;2023-08-06T05:38:16;4.85;;;1.13;;
24216;SDS011;12356;49.386;8.688;2023-08-06T05:40:47;2.88;;;1.15;;
24216;SDS011;12356;49.386;8.688;2023-08-06T05:43:19;4.93;;;1.20;;
24216;SDS011;12356;49.386;8.688;2023-08-06T05:45:49;4.28;;;1.02;;
24216;SDS011;12356;49.386;8.688;2023-08-06T05:48:20;4.45;;;1.10;;
24216;SDS011;12356;49.386;8.688;2023-08-06T05:50:52;4.88;;;1.10;;
24216;SDS011;12356;49.386;8.688;2023-08-06T05:53:23;2.47;;;0.90;;
24216;SDS011;12356;49.386;8.688;2023-08-06T05:55:53;3.75;;;0.95;;
24216;SDS011;12356;49.386;8.688;2023-08-06T05:58:24;4.00;;;1.10;;
24216;SDS011;12356;49.386;8.688;2023-08-06T06:00:56;4.35;;;1.00;;
24216;SDS011;12356;49.386;8.688;2023-08-06T06:03:27;5.57;;;1.13;;
24216;SDS011;12356;49.386;8.688;2023-08-06T06:05:57;5.82;;;0.93;;
24216;SDS011;12356;49.386;8.688;2023-08-06T06:08:30;4.10;;;0.80;;
24216;SDS011;12356;49.386;8.688;2023-08-06T06:11:01;4.75;;;1.27;;
24216;SDS011;12356;49.386;8.688;2023-08-06T06:13:32;5.65;;;1.02;;
24216;SDS011;12356;49.386;8.688;2023-08-06T06:16:02;3.47;;;1.10;;
24216;SDS011;12356;49.386;8.688;2023-08-06T06:18:33;4.40;;;0.85;;
24216;SDS011;12356;49.386;8.688;2023-08-06T06:21:03;5.65;;;1.15;;
24216;SDS011;12356;49.386;8.688;2023-08-06T06:23:34;2.03;;;0.77;;
24216;SDS011;12356;49.386;8.688;2023-08-06T06:26:04;5.97;;;1.00;;
24216;SDS011;12356;49.386;8.688;2023-08-06T06:28:35;3.05;;;0.70;;
24216;SDS011;12356;49.386;8.688;2023-08-06T06:31:05;2.88;;;0.95;;
24216;SDS011;12356;49.386;8.688;2023-08-06T06:33:36;4.40;;;0.90;;
24216;SDS011;12356;49.386;8.688;2023-08-06T06:36:06;4.45;;;0.90;;
24216;SDS011;12356;49.386;8.688;2023-08-06T06:38:37;2.55;;;0.70;;
24216;SDS011;12356;49.386;8.688;2023-08-06T06:41:08;2.03;;;0.60;;
24216;SDS011;12356;49.386;8.688;2023-08-06T06:43:39;2.70;;;0.65;;
24216;SDS011;12356;49.386;8.688;2023-08-06T06:46:10;2.90;;;0.60;;
24216;SDS011;12356;49.386;8.688;2023-08-06T06:48:41;3.10;;;0.60;;
24216;SDS011;12356;49.386;8.688;2023-08-06T06:51:11;3.50;;;0.70;;
24216;SDS011;12356;49.386;8.688;2023-08-06T06:53:42;1.42;;;0.50;;
24216;SDS011;12356;49.386;8.688;2023-08-06T06:56:12;1.83;;;0.68;;
24216;SDS011;12356;49.386;8.688;2023-08-06T06:58:43;2.38;;;0.68;;
24216;SDS011;12356;49.386;8.688;2023-08-06T07:01:14;1.63;;;0.47;;
24216;SDS011;12356;49.386;8.688;2023-08-06T07:03:44;1.80;;;0.60;;
24216;SDS011;12356;49.386;8.688;2023-08-06T07:06:15;1.33;;;0.50;;
24216;SDS011;12356;49.386;8.688;2023-08-06T07:08:45;1.92;;;0.47;;
24216;SDS011;12356;49.386;8.688;2023-08-06T07:11:16;3.00;;;0.60;;
24216;SDS011;12356;49.386;8.688;2023-08-06T07:13:47;2.38;;;0.60;;
24216;SDS011;12356;49.386;8.688;2023-08-06T07:16:17;2.60;;;0.60;;
24216;SDS011;12356;49.386;8.688;2023-08-06T07:18:48;1.70;;;0.50;;
24216;SDS011;12356;49.386;8.688;2023-08-06T07:21:18;1.10;;;0.40;;
24216;SDS011;12356;49.386;8.688;2023-08-06T07:23:49;3.65;;;0.70;;
24216;SDS011;12356;49.386;8.688;2023-08-06T07:26:19;1.60;;;0.40;;
24216;SDS011;12356;49.386;8.688;2023-08-06T07:28:50;1.25;;;0.40;;
24216;SDS011;12356;49.386;8.688;2023-08-06T07:31:20;2.25;;;0.40;;
24216;SDS011;12356;49.386;8.688;2023-08-06T07:33:51;0.50;;;0.30;;
24216;SDS011;12356;49.386;8.688;2023-08-06T07:36:21;1.05;;;0.50;;
24216;SDS011;12356;49.386;8.688;2023-08-06T07:38:52;0.40;;;0.40;;
24216;SDS011;12356;49.386;8.688;2023-08-06T07:41:25;0.90;;;0.50;;
24216;SDS011;12356;49.386;8.688;2023-08-06T07:43:56;1.15;;;0.40;;
24216;SDS011;12356;49.386;8.688;2023-08-06T07:46:26;1.20;;;0.40;;
24216;SDS011;12356;49.386;8.688;2023-08-06T07:48:57;0.98;;;0.30;;
24216;SDS011;12356;49.386;8.688;2023-08-06T07:51:27;1.23;;;0.52;;
24216;SDS011;12356;49.386;8.688;2023-08-06T07:53:58;1.55;;;0.32;;
24216;SDS011;12356;49.386;8.688;2023-08-06T07:56:29;2.15;;;0.40;;
24216;SDS011;12356;49.386;8.688;2023-08-06T07:58:59;2.15;;;0.45;;
24216;SDS011;12356;49.386;8.688;2023-08-06T08:01:30;0.45;;;0.30;;
24216;SDS011;12356;49.386;8.688;2023-08-06T08:04:00;0.50;;;0.30;;
24216;SDS011;12356;49.386;8.688;2023-08-06T08:06:31;0.43;;;0.30;;
24216;SDS011;12356;49.386;8.688;2023-08-06T08:09:03;0.63;;;0.30;;
24216;SDS011;12356;49.386;8.688;2023-08-06T08:11:34;2.15;;;0.60;;
24216;SDS011;12356;49.386;8.688;2023-08-06T08:14:04;0.75;;;0.40;;
24216;SDS011;12356;49.386;8.688;2023-08-06T08:16:35;0.77;;;0.38;;
24216;SDS011;12356;49.386;8.688;2023-08-06T08:19:05;1.58;;;0.50;;
24216;SDS011;12356;49.386;8.688;2023-08-06T08:21:36;0.77;;;0.40;;
24216;SDS011;12356;49.386;8.688;2023-08-06T08:24:07;0.68;;;0.30;;
24216;SDS011;12356;49.386;8.688;2023-08-06T08:26:38;0.88;;;0.30;;
24216;SDS011;12356;49.386;8.688;2023-08-06T08:29:08;0.55;;;0.40;;
24216;SDS011;12356;49.386;8.688;2023-08-06T08:31:39;0.90;;;0.43;;
24216;SDS011;12356;49.386;8.688;2023-08-06T08:34:09;1.50;;;0.30;;
24216;SDS011;12356;49.386;8.688;2023-08-06T08:36:40;0.45;;;0.30;;
24216;SDS011;12356;49.386;8.688;2023-08-06T08:39:10;1.90;;;0.40;;
24216;SDS011;12356;49.386;8.688;2023-08-06T08:41:41;0.73;;;0.30;;
24216;SDS011;12356;49.386;8.688;2023-08-06T08:44:12;0.22;;;0.20;;
24216;SDS011;12356;49.386;8.688;2023-08-06T08:46:45;2.47;;;0.30;;
24216;SDS011;12356;49.386;8.688;2023-08-06T08:51:49;0.45;;;0.30;;
24216;SDS011;12356;49.386;8.688;2023-08-06T08:54:22;0.77;;;0.50;;
24216;SDS011;12356;49.386;8.688;2023-08-06T08:56:54;0.98;;;0.30;;
24216;SDS011;12356;49.386;8.688;2023-08-06T08:59:25;0.85;;;0.30;;
24216;SDS011;12356;49.386;8.688;2023-08-06T09:01:57;0.73;;;0.50;;
24216;SDS011;12356;49.386;8.688;2023-08-06T09:04:31;0.40;;;0.40;;
24216;SDS011;12356;49.386;8.688;2023-08-06T09:07:02;0.60;;;0.50;;
24216;SDS011;12356;49.386;8.688;2023-08-06T09:09:34;0.70;;;0.40;;
24216;SDS011;12356;49.386;8.688;2023-08-06T09:12:11;0.65;;;0.30;;
24216;SDS011;12356;49.386;8.688;2023-08-06T09:14:44;0.47;;;0.22;;
24216;SDS011;12356;49.386;8.688;2023-08-06T09:17:14;0.88;;;0.25;;
24216;SDS011;12356;49.386;8.688;2023-08-06T09:19:49;1.33;;;0.20;;
24216;SDS011;12356;49.386;8.688;2023-08-06T09:22:20;0.13;;;0.13;;
24216;SDS011;12356;49.386;8.688;2023-08-06T09:24:50;0.20;;;0.20;;
24216;SDS011;12356;49.386;8.688;2023-08-06T09:27:21;0.20;;;0.20;;
24216;SDS011;12356;49.386;8.688;2023-08-06T09:29:52;0.47;;;0.20;;
24216;SDS011;12356;49.386;8.688;2023-08-06T09:32:23;0.20;;;0.20;;
24216;SDS011;12356;49.386;8.688;2023-08-06T09:34:57;0.57;;;0.25;;
24216;SDS011;12356;49.386;8.688;2023-08-06T09:37:35;0.10;;;0.10;;
24216;SDS011;12356;49.386;8.688;2023-08-06T09:40:21;0.15;;;0.13;;
24216;SDS011;12356;49.386;8.688;2023-08-06T09:42:55;0.35;;;0.20;;
24216;SDS011;12356;49.386;8.688;2023-08-06T09:45:31;0.10;;;0.10;;
24216;SDS011;12356;49.386;8.688;2023-08-06T09:48:03;0.20;;;0.20;;
24216;SDS011;12356;49.386;8.688;2023-08-06T09:50:36;0.20;;;0.20;;
24216;SDS011;12356;49.386;8.688;2023-08-06T09:53:08;1.35;;;0.38;;
24216;SDS011;12356;49.386;8.688;2023-08-06T09:55:38;0.43;;;0.40;;
24216;SDS011;12356;49.386;8.688;2023-08-06T09:58:09;1.65;;;0.30;;
24216;SDS011;12356;49.386;8.688;2023-08-06T10:00:40;1.55;;;0.40;;
24216;SDS011;12356;49.386;8.688;2023-08-06T10:03:11;0.73;;;0.40;;
24216;SDS011;12356;49.386;8.688;2023-08-06T10:05:44;0.63;;;0.40;;
24216;SDS011;12356;49.386;8.688;2023-08-06T10:08:15;0.50;;;0.43;;
24216;SDS011;12356;49.386;8.688;2023-08-06T10:10:45;1.75;;;0.50;;
24216;SDS011;12356;49.386;8.688;2023-08-06T10:13:16;0.52;;;0.40;;
24216;SDS011;12356;49.386;8.688;2023-08-06T10:15:49;0.30;;;0.30;;
24216;SDS011;12356;49.386;8.688;2023-08-06T10:18:21;2.15;;;0.40;;
24216;SDS011;12356;49.386;8.688;2023-08-06T10:20:52;0.75;;;0.20;;
24216;SDS011;12356;49.386;8.688;2023-08-06T10:23:32;0.57;;;0.30;;
24216;SDS011;12356;49.386;8.688;2023-08-06T10:26:04;0.30;;;0.30;;
24216;SDS011;12356;49.386;8.688;2023-08-06T10:28:38;0.20;;;0.20;;
24216;SDS011;12356;49.386;8.688;2023-08-06T10:31:09;0.30;;;0.30;;
24216;SDS011;12356;49.386;8.688;2023-08-06T10:33:40;0.80;;;0.30;;
24216;SDS011;12356;49.386;8.688;2023-08-06T10:36:17;1.95;;;0.30;;
24216;SDS011;12356;49.386;8.688;2023-08-06T10:38:48;1.75;;;0.30;;
24216;SDS011;12356;49.386;8.688;2023-08-06T10:41:23;1.25;;;0.30;;
24216;SDS011;12356;49.386;8.688;2023-08-06T10:44:07;0.45;;;0.30;;
24216;SDS011;12356;49.386;8.688;2023-08-06T10:46:39;0.65;;;0.40;;
24216;SDS011;12356;49.386;8.688;2023-08-06T10:49:10;0.82;;;0.40;;
24216;SDS011;12356;49.386;8.688;2023-08-06T10:51:42;0.30;;;0.30;;
24216;SDS011;12356;49.386;8.688;2023-08-06T10:54:13;3.45;;;0.47;;
24216;SDS011;12356;49.386;8.688;2023-08-06T10:56:44;0.40;;;0.30;;
24216;SDS011;12356;49.386;8.688;2023-08-06T10:59:18;1.10;;;0.40;;
24216;SDS011;12356;49.386;8.688;2023-08-06T11:01:48;0.90;;;0.30;;
24216;SDS011;12356;49.386;8.688;2023-08-06T11:04:19;0.60;;;0.32;;
24216;SDS011;12356;49.386;8.688;2023-08-06T11:06:54;0.43;;;0.20;;
24216;SDS011;12356;49.386;8.688;2023-08-06T11:09:24;0.30;;;0.30;;
24216;SDS011;12356;49.386;8.688;2023-08-06T11:11:56;0.55;;;0.28;;
24216;SDS011;12356;49.386;8.688;2023-08-06T11:14:27;0.40;;;0.40;;
24216;SDS011;12356;49.386;8.688;2023-08-06T11:16:57;1.15;;;0.30;;
24216;SDS011;12356;49.386;8.688;2023-08-06T11:19:28;1.33;;;0.40;;
24216;SDS011;12356;49.386;8.688;2023-08-06T11:21:59;0.60;;;0.47;;
24216;SDS011;12356;49.386;8.688;2023-08-06T11:24:31;0.35;;;0.35;;
24216;SDS011;12356;49.386;8.688;2023-08-06T11:27:02;0.82;;;0.50;;
24216;SDS011;12356;49.386;8.688;2023-08-06T11:29:36;0.50;;;0.50;;
24216;SDS011;12356;49.386;8.688;2023-08-06T11:32:08;0.57;;;0.40;;
24216;SDS011;12356;49.386;8.688;2023-08-06T11:34:39;0.52;;;0.40;;
24216;SDS011;12356;49.386;8.688;2023-08-06T11:37:10;0.50;;;0.50;;
24216;SDS011;12356;49.386;8.688;2023-08-06T11:39:44;2.08;;;0.50;;
24216;SDS011;12356;49.386;8.688;2023-08-06T11:42:18;0.95;;;0.50;;
24216;SDS011;12356;49.386;8.688;2023-08-06T11:44:49;0.50;;;0.50;;
24216;SDS011;12356;49.386;8.688;2023-08-06T11:47:19;1.08;;;0.60;;
24216;SDS011;12356;49.386;8.688;2023-08-06T11:49:50;1.05;;;0.60;;
24216;SDS011;12356;49.386;8.688;2023-08-06T11:52:24;0.70;;;0.70;;
24216;SDS011;12356;49.386;8.688;2023-08-06T11:55:02;1.85;;;0.70;;
24216;SDS011;12356;49.386;8.688;2023-08-06T11:57:37;0.70;;;0.60;;
24216;SDS011;12356;49.386;8.688;2023-08-06T12:00:10;0.70;;;0.60;;
24216;SDS011;12356;49.386;8.688;2023-08-06T12:02:42;0.60;;;0.60;;
24216;SDS011;12356;49.386;8.688;2023-08-06T12:05:14;0.55;;;0.55;;
24216;SDS011;12356;49.386;8.688;2023-08-06T12:07:50;0.70;;;0.70;;
24216;SDS011;12356;49.386;8.688;2023-08-06T12:10:22;0.90;;;0.75;;
24216;SDS011;12356;49.386;8.688;2023-08-06T12:12:54;1.17;;;0.80;;
24216;SDS011;12356;49.386;8.688;2023-08-06T12:15:25;2.33;;;0.80;;
24216;SDS011;12356;49.386;8.688;2023-08-06T12:17:55;1.55;;;0.60;;
24216;SDS011;12356;49.386;8.688;2023-08-06T12:20:26;2.00;;;1.00;;
24216;SDS011;12356;49.386;8.688;2023-08-06T12:22:58;1.42;;;0.80;;
24216;SDS011;12356;49.386;8.688;2023-08-06T12:25:28;3.13;;;0.90;;
24216;SDS011;12356;49.386;8.688;2023-08-06T12:27:59;4.93;;;0.85;;
24216;SDS011;12356;49.386;8.688;2023-08-06T12:30:30;1.95;;;0.80;;
24216;SDS011;12356;49.386;8.688;2023-08-06T12:33:00;1.90;;;0.90;;
24216;SDS011;12356;49.386;8.688;2023-08-06T12:35:31;0.88;;;0.80;;
24216;SDS011;12356;49.386;8.688;2023-08-06T12:38:01;1.23;;;0.80;;
24216;SDS011;12356;49.386;8.688;2023-08-06T12:40:32;2.75;;;1.10;;
24216;SDS011;12356;49.386;8.688;2023-08-06T12:43:02;2.55;;;1.05;;
24216;SDS011;12356;49.386;8.688;2023-08-06T12:45:33;1.65;;;0.95;;
24216;SDS011;12356;49.386;8.688;2023-08-06T12:48:04;1.15;;;0.88;;
24216;SDS011;12356;49.386;8.688;2023-08-06T12:50:35;1.33;;;1.08;;
24216;SDS011;12356;49.386;8.688;2023-08-06T12:53:05;1.80;;;0.90;;
24216;SDS011;12356;49.386;8.688;2023-08-06T12:55:36;1.70;;;1.10;;
24216;SDS011;12356;49.386;8.688;2023-08-06T12:58:07;1.67;;;1.10;;
24216;SDS011;12356;49.386;8.688;2023-08-06T13:00:37;2.55;;;1.10;;
24216;SDS011;12356;49.386;8.688;2023-08-06T13:03:08;3.53;;;1.30;;
24216;SDS011;12356;49.386;8.688;2023-08-06T13:05:39;2.17;;;0.90;;
24216;SDS011;12356;49.386;8.688;2023-08-06T13:08:09;1.75;;;0.90;;
24216;SDS011;12356;49.386;8.688;2023-08-06T13:10:40;1.35;;;0.60;;
24216;SDS011;12356;49.386;8.688;2023-08-06T13:13:11;1.15;;;0.80;;
24216;SDS011;12356;49.386;8.688;2023-08-06T13:15:41;1.02;;;0.60;;
24216;SDS011;12356;49.386;8.688;2023-08-06T13:18:12;1.35;;;0.60;;
24216;SDS011;12356;49.386;8.688;2023-08-06T13:20:42;0.80;;;0.60;;
24216;SDS011;12356;49.386;8.688;2023-08-06T13:23:13;1.02;;;0.70;;
24216;SDS011;12356;49.386;8.688;2023-08-06T13:25:46;0.98;;;0.60;;
24216;SDS011;12356;49.386;8.688;2023-08-06T13:28:16;1.20;;;0.60;;
24216;SDS011;12356;49.386;8.688;2023-08-06T13:30:47;1.15;;;0.63;;
24216;SDS011;12356;49.386;8.688;2023-08-06T13:33:17;2.00;;;0.70;;
24216;SDS011;12356;49.386;8.688;2023-08-06T13:35:48;0.95;;;0.70;;
24216;SDS011;12356;49.386;8.688;2023-08-06T13:38:20;1.77;;;0.82;;
24216;SDS011;12356;49.386;8.688;2023-08-06T13:40:51;1.55;;;0.80;;
24216;SDS011;12356;49.386;8.688;2023-08-06T13:43:22;1.23;;;0.70;;
24216;SDS011;12356;49.386;8.688;2023-08-06T13:45:52;2.47;;;0.80;;
24216;SDS011;12356;49.386;8.688;2023-08-06T13:48:23;2.17;;;0.90;;
24216;SDS011;12356;49.386;8.688;2023-08-06T13:50:53;1.20;;;0.70;;
24216;SDS011;12356;49.386;8.688;2023-08-06T13:53:24;1.70;;;0.60;;
24216;SDS011;12356;49.386;8.688;2023-08-06T13:55:59;1.98;;;0.73;;
24216;SDS011;12356;49.386;8.688;2023-08-06T13:58:30;0.93;;;0.60;;
24216;SDS011;12356;49.386;8.688;2023-08-06T14:01:01;0.93;;;0.60;;
24216;SDS011;12356;49.386;8.688;2023-08-06T14:03:31;0.85;;;0.70;;
24216;SDS011;12356;49.386;8.688;2023-08-06T14:06:02;1.10;;;0.65;;
24216;SDS011;12356;49.386;8.688;2023-08-06T14:08:32;2.45;;;0.90;;
24216;SDS011;12356;49.386;8.688;2023-08-06T14:11:05;1.45;;;0.90;;
24216;SDS011;12356;49.386;8.688;2023-08-06T14:13:36;1.33;;;0.88;;
24216;SDS011;12356;49.386;8.688;2023-08-06T14:16:07;1.30;;;0.80;;
24216;SDS011;12356;49.386;8.688;2023-08-06T14:18:38;1.55;;;0.70;;
24216;SDS011;12356;49.386;8.688;2023-08-06T14:21:09;1.17;;;0.98;;
24216;SDS011;12356;49.386;8.688;2023-08-06T14:23:39;1.20;;;0.90;;
24216;SDS011;12356;49.386;8.688;2023-08-06T14:26:12;1.75;;;0.90;;
24216;SDS011;12356;49.386;8.688;2023-08-06T14:28:45;2.88;;;0.90;;
24216;SDS011;12356;49.386;8.688;2023-08-06T14:31:15;1.88;;;0.90;;
24216;SDS011;12356;49.386;8.688;2023-08-06T14:33:46;1.23;;;1.00;;
24216;SDS011;12356;49.386;8.688;2023-08-06T14:36:17;1.40;;;1.00;;
24216;SDS011;12356;49.386;8.688;2023-08-06T14:38:48;3.35;;;1.00;;
24216;SDS011;12356;49.386;8.688;2023-08-06T14:41:19;1.48;;;1.00;;
24216;SDS011;12356;49.386;8.688;2023-08-06T14:43:50;1.67;;;1.00;;
24216;SDS011;12356;49.386;8.688;2023-08-06T14:46:20;2.30;;;0.90;;
24216;SDS011;12356;49.386;8.688;2023-08-06T14:48:51;1.70;;;0.90;;
24216;SDS011;12356;49.386;8.688;2023-08-06T14:51:21;3.05;;;1.05;;
24216;SDS011;12356;49.386;8.688;2023-08-06T14:53:53;2.17;;;1.00;;
24216;SDS011;12356;49.386;8.688;2023-08-06T14:56:23;4.05;;;1.40;;
24216;SDS011;12356;49.386;8.688;2023-08-06T14:58:54;3.10;;;1.20;;
24216;SDS011;12356;49.386;8.688;2023-08-06T15:01:24;1.55;;;1.00;;
24216;SDS011;12356;49.386;8.688;2023-08-06T15:03:55;1.30;;;1.00;;
24216;SDS011;12356;49.386;8.688;2023-08-06T15:06:25;2.00;;;1.10;;
24216;SDS011;12356;49.386;8.688;2023-08-06T15:08:56;2.28;;;1.13;;
24216;SDS011;12356;49.386;8.688;2023-08-06T15:11:30;3.05;;;1.13;;
24216;SDS011;12356;49.386;8.688;2023-08-06T15:14:01;4.55;;;1.10;;
24216;SDS011;12356;49.386;8.688;2023-08-06T15:16:33;2.25;;;1.15;;